Terminal Aerodrome Forecast
Issued by NWS Cleveland, OH

Home | Current Version | Previous Version | Graphics & Text | Print | Product List | Glossary On
Versions: 1 2 3 4 5 6 7 8 9 10 11 12 13 14 15 16 17 18 19 20 21 22 23 24
000
FTUS41 KCLE 301600 AAA
TAFCAK
TAF AMD
KCAK 301617Z 3016/3112 33015G25KT 4SM -SHSN BLSN SCT015 OVC025
      TEMPO 3016/3018 2SM -SHSN BLSN
     FM301900 33012G20KT P6SM SCT015 BKN025
     FM310200 VRB03KT P6SM SCT150 BKN200=

USA.gov is the U.S. government's official web portal to all federal, state and local government web resources and services.